Terminal Aerodrome Forecast
Issued by NWS Jackson, MS

Home | Current Version | Previous Version | Text Only | Print | Product List | Glossary On
Versions: 1 2 3 4 5 6 7 8 9 10 11 12 13 14 15 16
252
FTUS44 KJAN 031125
TAFHBG
TAF
KHBG 031125Z 0312/0412 03007KT P6SM -RA SCT015 OVC050
     FM040600 06008KT 6SM -RA OVC025
     FM040800 06008KT 6SM -RA OVC015
     FM041000 03008KT 4SM -RA BR OVC007=

USA.gov is the U.S. government's official web portal to all federal, state and local government web resources and services.